createdAt,value
2023-04-21T00:00:32.310Z,100.00
2023-04-21T00:03:20.426Z,100.00
2023-04-21T00:05:48.792Z,100.00
2023-04-21T00:08:19.071Z,100.00
2023-04-21T00:10:47.287Z,100.00
2023-04-21T00:13:15.350Z,100.00
2023-04-21T00:15:44.363Z,100.00
2023-04-21T00:18:13.884Z,100.00
2023-04-21T00:20:42.864Z,100.00
2023-04-21T00:23:14.109Z,100.00
2023-04-21T00:25:42.167Z,100.00
2023-04-21T00:28:10.528Z,100.00
2023-04-21T00:30:38.812Z,100.00
2023-04-21T00:33:07.262Z,100.00
2023-04-21T00:35:35.434Z,100.00
2023-04-21T00:38:04.676Z,100.00
2023-04-21T00:40:34.068Z,100.00
2023-04-21T00:43:02.236Z,100.00
2023-04-21T00:45:30.621Z,100.00
2023-04-21T00:47:59.592Z,100.00
2023-04-21T00:50:28.504Z,100.00
2023-04-21T00:52:57.565Z,100.00
2023-04-21T00:55:25.885Z,100.00
2023-04-21T00:57:56.519Z,100.00
2023-04-21T01:00:29.180Z,100.00
2023-04-21T01:03:00.005Z,100.00
2023-04-21T01:05:28.414Z,100.00
2023-04-21T01:07:56.789Z,100.00
2023-04-21T01:10:24.813Z,100.00
2023-04-21T01:12:52.861Z,100.00
2023-04-21T01:15:21.115Z,100.00
2023-04-21T01:17:49.990Z,100.00
2023-04-21T01:20:18.352Z,100.00
2023-04-21T01:22:47.037Z,100.00
2023-04-21T01:25:15.228Z,100.00
2023-04-21T01:27:43.225Z,100.00
2023-04-21T01:30:11.883Z,100.00
2023-04-21T01:32:39.987Z,100.00
2023-04-21T01:35:09.583Z,100.00
2023-04-21T01:37:39.524Z,100.00
2023-04-21T01:40:09.376Z,100.00
2023-04-21T01:42:40.375Z,100.00
2023-04-21T01:45:09.685Z,100.00
2023-04-21T01:47:38.496Z,100.00
2023-04-21T01:50:10.226Z,100.00
2023-04-21T01:52:38.261Z,100.00
2023-04-21T01:55:06.987Z,100.00
2023-04-21T01:57:36.375Z,100.00
2023-04-21T02:00:05.315Z,100.00
2023-04-21T02:02:43.398Z,100.00
2023-04-21T02:05:14.204Z,100.00
2023-04-21T02:07:42.913Z,100.00
2023-04-21T02:10:12.518Z,100.00
2023-04-21T02:12:40.577Z,100.00
2023-04-21T02:15:11.355Z,100.00
2023-04-21T02:17:39.889Z,100.00
2023-04-21T02:20:12.520Z,100.00
2023-04-21T02:22:40.763Z,100.00
2023-04-21T02:25:09.558Z,100.00
2023-04-21T02:27:38.650Z,100.00
2023-04-21T02:30:07.730Z,100.00
2023-04-21T02:32:39.082Z,100.00
2023-04-21T02:35:07.542Z,100.00
2023-04-21T02:37:35.748Z,100.00
2023-04-21T02:40:03.937Z,100.00
2023-04-21T02:42:33.937Z,100.00
2023-04-21T02:45:01.964Z,100.00
2023-04-21T02:47:30.162Z,100.00
2023-04-21T02:49:58.500Z,100.00
2023-04-21T02:52:26.860Z,100.00
2023-04-21T02:54:54.966Z,100.00
2023-04-21T02:57:22.958Z,100.00
2023-04-21T02:59:51.504Z,100.00
2023-04-21T03:02:19.741Z,100.00
2023-04-21T03:04:47.862Z,100.00
2023-04-21T03:07:16.494Z,100.00
2023-04-21T03:09:44.497Z,100.00
2023-04-21T03:12:12.509Z,100.00
2023-04-21T03:14:40.717Z,100.00
2023-04-21T03:17:08.786Z,100.00
2023-04-21T03:19:36.904Z,100.00
2023-04-21T03:22:05.018Z,100.00
2023-04-21T03:24:35.243Z,100.00
2023-04-21T03:27:05.962Z,100.00
2023-04-21T03:29:37.043Z,100.00
2023-04-21T03:32:05.197Z,100.00
2023-04-21T03:34:35.441Z,100.00
2023-04-21T03:37:06.260Z,100.00
2023-04-21T03:39:34.253Z,100.00
2023-04-21T03:42:05.153Z,100.00
2023-04-21T03:44:33.178Z,100.00
2023-04-21T03:47:04.578Z,100.00
2023-04-21T03:49:35.167Z,100.00
2023-04-21T03:52:03.643Z,100.00
2023-04-21T03:54:31.828Z,100.00
2023-04-21T03:56:59.852Z,100.00
2023-04-21T03:59:28.971Z,100.00
2023-04-21T04:01:57.130Z,100.00
2023-04-21T04:04:25.452Z,100.00
2023-04-21T04:06:53.727Z,100.00
2023-04-21T04:09:21.955Z,100.00
2023-04-21T04:11:50.094Z,100.00
2023-04-21T04:14:18.292Z,100.00
2023-04-21T04:16:46.388Z,100.00
2023-04-21T04:19:17.371Z,100.00
2023-04-21T04:21:48.844Z,100.00
2023-04-21T04:24:17.172Z,100.00
2023-04-21T04:26:45.836Z,100.00
2023-04-21T04:29:14.170Z,100.00
2023-04-21T04:31:42.385Z,100.00
2023-04-21T04:34:11.563Z,100.00
2023-04-21T04:36:39.620Z,100.00
2023-04-21T04:39:10.400Z,100.00
2023-04-21T04:41:38.861Z,100.00
2023-04-21T04:44:09.245Z,100.00
2023-04-21T04:46:39.811Z,100.00
2023-04-21T04:49:08.059Z,100.00
2023-04-21T04:51:37.526Z,100.00
2023-04-21T04:54:05.957Z,100.00
2023-04-21T04:56:34.205Z,100.00
2023-04-21T04:59:02.225Z,100.00
2023-04-21T05:01:30.964Z,100.00
2023-04-21T05:03:59.711Z,100.00
2023-04-21T05:06:29.207Z,100.00
2023-04-21T05:08:57.282Z,100.00
2023-04-21T05:11:25.481Z,100.00
2023-04-21T05:13:53.786Z,100.00
2023-04-21T05:16:21.774Z,100.00
2023-04-21T05:18:54.162Z,100.00
2023-04-21T05:21:29.249Z,100.00
2023-04-21T05:23:58.776Z,100.00
2023-04-21T05:26:28.146Z,100.00
2023-04-21T05:28:58.210Z,100.00
2023-04-21T05:31:28.055Z,100.00
2023-04-21T05:33:58.866Z,100.00
2023-04-21T05:36:28.054Z,100.00
2023-04-21T05:38:56.024Z,100.00
2023-04-21T05:41:24.971Z,100.00
2023-04-21T05:43:53.135Z,100.00
2023-04-21T05:46:21.592Z,100.00
2023-04-21T05:48:51.517Z,100.00
2023-04-21T05:51:21.984Z,100.00
2023-04-21T05:53:50.450Z,100.00
2023-04-21T05:56:20.244Z,100.00
2023-04-21T05:58:48.491Z,100.00
2023-04-21T06:01:16.489Z,100.00
2023-04-21T06:03:50.725Z,100.00
2023-04-21T06:06:19.136Z,100.00
2023-04-21T06:08:47.162Z,100.00
2023-04-21T06:11:15.355Z,100.00
2023-04-21T06:13:44.918Z,100.00
2023-04-21T06:16:13.254Z,100.00
2023-04-21T06:18:42.131Z,100.00
2023-04-21T06:21:11.587Z,100.00
2023-04-21T06:23:39.896Z,100.00
2023-04-21T06:26:08.762Z,100.00
2023-04-21T06:28:37.866Z,100.00
2023-04-21T06:31:08.982Z,100.00
2023-04-21T06:33:38.039Z,100.00
2023-04-21T06:36:06.819Z,100.00
2023-04-21T06:38:35.102Z,100.00
2023-04-21T06:41:04.648Z,100.00
2023-04-21T06:43:33.001Z,100.00
2023-04-21T06:46:01.170Z,100.00
2023-04-21T06:48:30.377Z,100.00
2023-04-21T06:51:00.788Z,100.00
2023-04-21T06:53:28.993Z,100.00
2023-04-21T06:55:57.391Z,100.00
2023-04-21T06:58:25.719Z,100.00
2023-04-21T07:00:56.393Z,100.00
2023-04-21T07:03:24.660Z,100.00
2023-04-21T07:05:52.946Z,100.00
2023-04-21T07:08:21.026Z,100.00
2023-04-21T07:10:49.210Z,100.00
2023-04-21T07:13:17.994Z,100.00
2023-04-21T07:15:46.392Z,100.00
2023-04-21T07:18:14.518Z,100.00
2023-04-21T07:20:43.349Z,100.00
2023-04-21T07:23:11.890Z,100.00
2023-04-21T07:25:40.894Z,100.00
2023-04-21T07:28:09.650Z,100.00
2023-04-21T07:30:37.798Z,100.00
2023-04-21T07:33:08.180Z,100.00
2023-04-21T07:35:37.702Z,100.00
2023-04-21T07:38:06.114Z,100.00
2023-04-21T07:40:34.767Z,100.00
2023-04-21T07:43:02.858Z,100.00
2023-04-21T07:45:31.250Z,100.00
2023-04-21T07:47:59.440Z,100.00
2023-04-21T07:50:28.855Z,100.00
2023-04-21T07:52:57.035Z,100.00
2023-04-21T07:55:25.782Z,100.00
2023-04-21T07:57:54.185Z,100.00
2023-04-21T08:00:22.395Z,100.00
2023-04-21T08:02:50.499Z,99.76
2023-04-21T08:05:19.070Z,98.57
2023-04-21T08:07:48.012Z,97.64
2023-04-21T08:10:18.447Z,95.95
2023-04-21T08:12:51.224Z,94.29
2023-04-21T08:15:19.458Z,94.09
2023-04-21T08:17:51.824Z,93.71
2023-04-21T08:20:20.230Z,89.93
2023-04-21T08:22:50.331Z,87.44
2023-04-21T08:25:19.415Z,85.70
2023-04-21T08:27:47.756Z,84.19
2023-04-21T08:30:16.255Z,81.85
2023-04-21T08:32:45.550Z,80.23
2023-04-21T08:35:13.834Z,79.19
2023-04-21T08:37:42.060Z,72.89
2023-04-21T08:40:13.432Z,65.87
2023-04-21T08:42:42.505Z,65.71
2023-04-21T08:45:11.124Z,65.90
2023-04-21T08:47:41.166Z,62.99
2023-04-21T08:50:13.765Z,62.32
2023-04-21T08:52:42.330Z,63.41
2023-04-21T08:55:12.987Z,61.77
2023-04-21T08:57:41.228Z,59.57
2023-04-21T09:00:10.544Z,60.69
2023-04-21T09:03:00.851Z,60.87
2023-04-21T09:05:33.984Z,60.87
2023-04-21T09:08:13.483Z,60.76
2023-04-21T09:11:01.868Z,60.22
2023-04-21T09:13:32.772Z,61.06
2023-04-21T09:16:02.590Z,61.03
2023-04-21T09:18:36.120Z,59.79
2023-04-21T09:21:12.621Z,58.58
2023-04-21T09:23:52.886Z,57.42
2023-04-21T09:26:23.440Z,57.76
2023-04-21T09:28:53.726Z,57.53
2023-04-21T09:31:25.354Z,56.78
2023-04-21T09:33:59.556Z,56.61
2023-04-21T09:36:32.109Z,55.27
2023-04-21T09:41:34.865Z,54.76
2023-04-21T09:44:04.978Z,54.77
2023-04-21T09:46:36.279Z,54.54
2023-04-21T09:49:07.033Z,54.27
2023-04-21T09:54:28.281Z,53.92
2023-04-21T09:57:06.946Z,53.32
2023-04-21T09:59:41.103Z,52.24
2023-04-21T10:02:15.498Z,51.51
2023-04-21T10:04:45.052Z,50.92
2023-04-21T10:07:13.404Z,50.57
2023-04-21T10:09:55.813Z,51.50
2023-04-21T10:12:26.435Z,50.99
2023-04-21T10:14:57.076Z,50.31
2023-04-21T10:17:26.930Z,50.18
2023-04-21T10:19:57.528Z,50.79
2023-04-21T10:22:36.330Z,50.88
2023-04-21T10:25:11.083Z,50.54
2023-04-21T10:27:45.895Z,49.04
2023-04-21T10:30:24.031Z,48.65
2023-04-21T10:33:10.102Z,48.76
2023-04-21T10:35:59.975Z,46.89
2023-04-21T10:38:43.541Z,46.42
2023-04-21T10:41:36.279Z,46.36
2023-04-21T10:44:12.209Z,46.80
2023-04-21T10:46:52.599Z,46.48
2023-04-21T10:49:30.046Z,46.27
2023-04-21T10:52:02.804Z,46.83
2023-04-21T10:54:46.735Z,46.62
2023-04-21T10:57:16.819Z,45.63
2023-04-21T10:59:47.558Z,45.07
2023-04-21T11:02:18.530Z,44.14
2023-04-21T11:04:53.599Z,43.84
2023-04-21T11:07:23.774Z,44.57
2023-04-21T11:10:19.914Z,45.27
2023-04-21T11:12:48.007Z,44.97
2023-04-21T11:15:16.439Z,44.44
2023-04-21T11:17:47.209Z,44.13
2023-04-21T11:20:15.914Z,43.49
2023-04-21T11:22:43.948Z,42.32
2023-04-21T11:25:18.967Z,42.96
2023-04-21T11:28:00.071Z,42.72
2023-04-21T11:30:34.265Z,41.72
2023-04-21T11:33:05.181Z,41.01
2023-04-21T11:35:41.823Z,38.83
2023-04-21T11:38:10.751Z,38.54
2023-04-21T11:40:46.794Z,38.14
2023-04-21T11:43:15.188Z,38.65
2023-04-21T11:45:43.479Z,37.05
2023-04-21T11:48:17.723Z,37.23
2023-04-21T11:50:50.847Z,37.77
2023-04-21T11:53:19.572Z,38.45
2023-04-21T11:55:51.363Z,38.84
2023-04-21T11:58:21.705Z,38.88
2023-04-21T12:00:51.114Z,38.76
2023-04-21T12:03:20.267Z,37.66
2023-04-21T12:05:48.551Z,37.64
2023-04-21T12:08:16.755Z,37.83
2023-04-21T12:10:46.946Z,37.78
2023-04-21T12:13:24.981Z,37.79
2023-04-21T12:15:53.562Z,37.93
2023-04-21T12:18:21.612Z,37.97
2023-04-21T12:20:52.305Z,38.34
2023-04-21T12:23:21.144Z,37.66
2023-04-21T12:25:54.183Z,38.05
2023-04-21T12:28:22.454Z,37.89
2023-04-21T12:30:53.274Z,38.65
2023-04-21T12:33:21.760Z,38.78
2023-04-21T12:35:50.131Z,39.14
2023-04-21T12:38:18.202Z,39.09
2023-04-21T12:40:48.702Z,38.80
2023-04-21T12:43:16.783Z,38.39
2023-04-21T12:45:45.965Z,38.36
2023-04-21T12:48:14.501Z,38.25
2023-04-21T12:50:47.285Z,37.78
2023-04-21T12:53:15.565Z,37.01
2023-04-21T12:55:56.897Z,36.81
2023-04-21T12:58:34.443Z,36.50
2023-04-21T13:01:03.566Z,36.73
2023-04-21T13:03:34.980Z,36.96
2023-04-21T13:06:05.072Z,37.29
2023-04-21T13:08:33.702Z,38.13
2023-04-21T13:11:07.323Z,38.54
2023-04-21T13:13:36.207Z,39.20
2023-04-21T13:16:09.499Z,39.97
2023-04-21T13:18:40.815Z,40.23
2023-04-21T13:21:08.954Z,40.55
2023-04-21T13:23:37.096Z,40.53
2023-04-21T13:26:07.034Z,40.11
2023-04-21T13:28:35.764Z,40.34
2023-04-21T13:31:04.086Z,40.28
2023-04-21T13:33:35.151Z,40.65
2023-04-21T13:36:03.844Z,40.01
2023-04-21T13:38:34.760Z,39.76
2023-04-21T13:41:03.259Z,39.35
2023-04-21T13:43:32.000Z,39.25
2023-04-21T13:46:00.204Z,39.47
2023-04-21T13:48:29.925Z,39.48
2023-04-21T13:50:58.480Z,39.16
2023-04-21T13:53:27.909Z,38.96
2023-04-21T13:55:57.913Z,39.14
2023-04-21T13:58:26.062Z,39.22
2023-04-21T14:00:54.024Z,39.04
2023-04-21T14:03:23.010Z,39.26
2023-04-21T14:05:51.760Z,39.41
2023-04-21T14:08:20.777Z,39.62
2023-04-21T14:10:49.101Z,39.83
2023-04-21T14:15:51.323Z,39.12
2023-04-21T14:18:20.146Z,38.74
2023-04-21T14:20:49.382Z,39.18
2023-04-21T14:23:17.594Z,39.43
2023-04-21T14:25:46.011Z,39.89
2023-04-21T14:28:15.617Z,40.27
2023-04-21T14:30:43.883Z,40.57
2023-04-21T14:33:12.626Z,40.51
2023-04-21T14:35:41.022Z,40.76
2023-04-21T14:38:09.553Z,41.29
2023-04-21T14:40:37.659Z,41.24
2023-04-21T14:43:06.006Z,41.43
2023-04-21T14:45:36.570Z,41.70
2023-04-21T14:48:04.781Z,41.53
2023-04-21T14:50:39.913Z,41.38
2023-04-21T14:53:08.525Z,42.06
2023-04-21T14:55:36.652Z,42.25
2023-04-21T14:58:04.882Z,42.55
2023-04-21T15:00:34.886Z,41.82
2023-04-21T15:03:03.426Z,41.15
2023-04-21T15:05:34.938Z,40.58
2023-04-21T15:08:03.313Z,40.81
2023-04-21T15:10:32.780Z,41.22
2023-04-21T15:13:01.004Z,41.49
2023-04-21T15:15:29.198Z,41.59
2023-04-21T15:17:57.279Z,41.80
2023-04-21T15:20:36.929Z,42.19
2023-04-21T15:23:12.471Z,42.48
2023-04-21T15:25:44.722Z,42.29
2023-04-21T15:28:13.372Z,42.52
2023-04-21T15:30:42.313Z,42.02
2023-04-21T15:33:11.719Z,41.70
2023-04-21T15:35:40.348Z,41.54
2023-04-21T15:38:08.650Z,41.26
2023-04-21T15:40:43.705Z,40.63
2023-04-21T15:43:26.825Z,39.92
2023-04-21T15:45:55.389Z,39.55
2023-04-21T15:48:23.815Z,38.77
2023-04-21T15:50:52.360Z,36.88
2023-04-21T15:53:20.770Z,36.55
2023-04-21T15:55:49.156Z,36.98
2023-04-21T15:58:17.568Z,38.13
2023-04-21T16:00:46.065Z,38.32
2023-04-21T16:03:14.301Z,39.01
2023-04-21T16:05:42.783Z,40.04
2023-04-21T16:08:13.489Z,40.57
2023-04-21T16:10:46.397Z,41.11
2023-04-21T16:13:14.431Z,41.68
2023-04-21T16:15:42.614Z,42.49
2023-04-21T16:18:10.939Z,43.34
2023-04-21T16:20:39.503Z,43.46
2023-04-21T16:23:07.748Z,44.11
2023-04-21T16:25:36.177Z,44.33
2023-04-21T16:28:06.513Z,44.46
2023-04-21T16:30:36.290Z,44.21
2023-04-21T16:33:04.933Z,44.75
2023-04-21T16:35:36.140Z,44.69
2023-04-21T16:38:05.340Z,45.07
2023-04-21T16:40:34.345Z,45.39
2023-04-21T16:43:02.643Z,45.29
2023-04-21T16:45:31.005Z,45.64
2023-04-21T16:48:00.790Z,46.23
2023-04-21T16:50:29.201Z,46.10
2023-04-21T16:52:57.404Z,46.28
2023-04-21T16:55:25.941Z,46.64
2023-04-21T16:57:54.596Z,46.75
2023-04-21T17:00:23.372Z,46.88
2023-04-21T17:02:51.707Z,46.95
2023-04-21T17:05:19.777Z,47.29
2023-04-21T17:07:48.421Z,47.31
2023-04-21T17:10:16.648Z,48.14
2023-04-21T17:12:46.509Z,48.93
2023-04-21T17:15:15.517Z,49.38
2023-04-21T17:17:47.238Z,49.88
2023-04-21T17:20:16.169Z,49.52
2023-04-21T17:22:44.908Z,49.64
2023-04-21T17:25:13.508Z,50.07
2023-04-21T17:27:42.163Z,52.06
2023-04-21T17:30:11.020Z,52.51
2023-04-21T17:32:40.979Z,52.45
2023-04-21T17:35:09.373Z,54.40
2023-04-21T17:37:38.821Z,53.76
2023-04-21T17:40:09.769Z,57.48
2023-04-21T17:42:40.425Z,56.53
2023-04-21T17:45:08.860Z,57.19
2023-04-21T17:47:37.524Z,58.51
2023-04-21T17:50:06.365Z,61.40
2023-04-21T17:52:34.373Z,65.00
2023-04-21T17:55:05.327Z,64.41
2023-04-21T17:57:33.895Z,63.76
2023-04-21T18:00:07.215Z,64.94
2023-04-21T18:02:35.328Z,65.63
2023-04-21T18:05:04.754Z,67.92
2023-04-21T18:07:33.122Z,67.36
2023-04-21T18:10:01.651Z,70.16
2023-04-21T18:12:30.691Z,69.58
2023-04-21T18:14:59.519Z,68.49
2023-04-21T18:17:27.514Z,68.63
2023-04-21T18:19:55.833Z,68.40
2023-04-21T18:22:23.774Z,68.48
2023-04-21T18:24:51.930Z,67.89
2023-04-21T18:27:20.001Z,68.54
2023-04-21T18:29:49.038Z,69.26
2023-04-21T18:32:17.727Z,69.79
2023-04-21T18:34:45.864Z,69.58
2023-04-21T18:37:14.756Z,69.70
2023-04-21T18:39:45.472Z,71.81
2023-04-21T18:42:13.933Z,72.37
2023-04-21T18:44:43.584Z,71.31
2023-04-21T18:47:12.469Z,73.23
2023-04-21T18:49:41.159Z,75.71
2023-04-21T18:52:09.503Z,74.05
2023-04-21T18:54:38.010Z,75.19
2023-04-21T18:57:08.366Z,75.00
2023-04-21T18:59:36.457Z,76.05
2023-04-21T19:02:06.199Z,79.35
2023-04-21T19:04:34.888Z,81.11
2023-04-21T19:07:03.506Z,80.07
2023-04-21T19:09:31.496Z,80.45
2023-04-21T19:11:59.467Z,81.42
2023-04-21T19:14:29.864Z,80.81
2023-04-21T19:17:01.114Z,80.36
2023-04-21T19:19:29.273Z,80.90
2023-04-21T19:21:58.993Z,80.83
2023-04-21T19:24:28.139Z,81.90
2023-04-21T19:26:57.523Z,82.90
2023-04-21T19:29:25.683Z,84.79
2023-04-21T19:31:56.920Z,89.46
2023-04-21T19:34:25.195Z,86.66
2023-04-21T19:36:54.862Z,87.75
2023-04-21T19:39:23.046Z,89.76
2023-04-21T19:41:51.521Z,94.08
2023-04-21T19:44:19.538Z,96.43
2023-04-21T19:46:48.318Z,95.31
2023-04-21T19:49:16.388Z,92.27
2023-04-21T19:51:44.416Z,89.60
2023-04-21T19:54:12.669Z,90.47
2023-04-21T19:56:40.909Z,93.25
2023-04-21T19:59:09.032Z,94.38
2023-04-21T20:01:37.220Z,91.43
2023-04-21T20:04:07.017Z,89.69
2023-04-21T20:06:35.552Z,90.53
2023-04-21T20:09:05.945Z,95.05
2023-04-21T20:11:34.147Z,98.00
2023-04-21T20:14:02.950Z,95.39
2023-04-21T20:16:31.908Z,95.43
2023-04-21T20:19:00.423Z,95.30
2023-04-21T20:21:29.029Z,96.89
2023-04-21T20:23:57.123Z,98.63
2023-04-21T20:26:25.585Z,98.98
2023-04-21T20:28:53.662Z,97.15
2023-04-21T20:31:24.048Z,97.91
2023-04-21T20:33:51.970Z,99.71
2023-04-21T20:36:20.024Z,99.89
2023-04-21T20:38:49.720Z,100.00
2023-04-21T20:41:17.827Z,100.00
2023-04-21T20:43:46.723Z,100.00
2023-04-21T20:46:15.751Z,100.00
2023-04-21T20:48:43.914Z,100.00
2023-04-21T20:51:12.501Z,100.00
2023-04-21T20:53:40.759Z,100.00
2023-04-21T20:56:08.947Z,100.00
2023-04-21T20:58:38.102Z,100.00
2023-04-21T21:01:06.322Z,100.00
2023-04-21T21:03:34.534Z,100.00
2023-04-21T21:06:03.356Z,100.00
2023-04-21T21:08:31.446Z,100.00
2023-04-21T21:10:59.890Z,100.00
2023-04-21T21:13:27.862Z,100.00
2023-04-21T21:15:57.017Z,100.00
2023-04-21T21:18:25.118Z,100.00
2023-04-21T21:20:53.151Z,100.00
2023-04-21T21:23:21.486Z,100.00
2023-04-21T21:25:50.586Z,100.00
2023-04-21T21:28:19.156Z,100.00
2023-04-21T21:30:47.210Z,100.00
2023-04-21T21:33:16.260Z,100.00
2023-04-21T21:35:44.400Z,100.00
2023-04-21T21:38:12.350Z,100.00
2023-04-21T21:40:40.427Z,100.00
2023-04-21T21:43:09.846Z,100.00
2023-04-21T21:45:37.908Z,100.00
2023-04-21T21:48:06.109Z,100.00
2023-04-21T21:50:34.113Z,100.00
2023-04-21T21:53:02.161Z,100.00
2023-04-21T21:55:30.134Z,100.00
2023-04-21T21:58:01.761Z,100.00
2023-04-21T22:00:30.597Z,100.00
2023-04-21T22:02:59.015Z,100.00
2023-04-21T22:05:27.408Z,100.00
2023-04-21T22:07:57.001Z,100.00
2023-04-21T22:10:25.433Z,100.00
2023-04-21T22:12:54.321Z,100.00
2023-04-21T22:15:22.446Z,100.00
2023-04-21T22:17:50.560Z,100.00
2023-04-21T22:20:19.310Z,100.00
2023-04-21T22:22:47.627Z,100.00
2023-04-21T22:25:17.040Z,100.00
2023-04-21T22:27:45.677Z,100.00
2023-04-21T22:30:14.469Z,100.00
2023-04-21T22:32:42.670Z,100.00
2023-04-21T22:35:11.024Z,100.00
2023-04-21T22:37:39.126Z,100.00
2023-04-21T22:40:08.473Z,100.00
2023-04-21T22:42:37.100Z,100.00
2023-04-21T22:45:05.838Z,100.00
2023-04-21T22:47:34.843Z,100.00
2023-04-21T22:50:04.443Z,100.00
2023-04-21T22:52:32.473Z,100.00
2023-04-21T22:55:00.752Z,100.00
2023-04-21T22:57:28.859Z,100.00
2023-04-21T22:59:56.812Z,100.00
2023-04-21T23:02:24.958Z,100.00
2023-04-21T23:04:54.066Z,100.00
2023-04-21T23:07:22.052Z,100.00
2023-04-21T23:09:50.097Z,100.00
2023-04-21T23:12:18.156Z,100.00
2023-04-21T23:14:46.509Z,100.00
2023-04-21T23:17:14.472Z,100.00
2023-04-21T23:19:42.372Z,100.00
2023-04-21T23:22:10.472Z,100.00
2023-04-21T23:24:38.482Z,100.00
2023-04-21T23:27:06.682Z,100.00
2023-04-21T23:29:34.701Z,100.00
2023-04-21T23:32:02.744Z,100.00
2023-04-21T23:34:30.939Z,100.00
2023-04-21T23:36:58.985Z,100.00
2023-04-21T23:39:27.269Z,100.00
2023-04-21T23:41:55.868Z,100.00
2023-04-21T23:44:23.907Z,100.00
2023-04-21T23:46:52.011Z,100.00
2023-04-21T23:49:19.877Z,100.00
2023-04-21T23:51:48.978Z,100.00
2023-04-21T23:54:17.020Z,100.00
2023-04-21T23:56:45.416Z,100.00
2023-04-21T23:59:13.363Z,100.00
